sensor_id;sensor_type;location;lat;lon;timestamp;temperature;humidity
27506;DHT22;14939;43.596;1.320;2023-10-19T00:00:35;16.70;99.90
27506;DHT22;14939;43.596;1.320;2023-10-19T00:03:10;16.70;99.90
27506;DHT22;14939;43.596;1.320;2023-10-19T00:05:37;16.70;99.90
27506;DHT22;14939;43.596;1.320;2023-10-19T00:08:04;16.70;99.90
27506;DHT22;14939;43.596;1.320;2023-10-19T00:10:43;16.70;99.90
27506;DHT22;14939;43.596;1.320;2023-10-19T00:13:11;16.70;99.90
27506;DHT22;14939;43.596;1.320;2023-10-19T00:15:41;16.60;99.90
27506;DHT22;14939;43.596;1.320;2023-10-19T00:18:13;16.60;99.90
27506;DHT22;14939;43.596;1.320;2023-10-19T00:20:43;16.50;99.90
27506;DHT22;14939;43.596;1.320;2023-10-19T00:23:15;16.40;99.90
27506;DHT22;14939;43.596;1.320;2023-10-19T00:26:01;16.40;99.90
27506;DHT22;14939;43.596;1.320;2023-10-19T00:28:43;16.50;99.90
27506;DHT22;14939;43.596;1.320;2023-10-19T00:31:11;16.50;99.90
27506;DHT22;14939;43.596;1.320;2023-10-19T00:33:37;16.50;99.90
27506;DHT22;14939;43.596;1.320;2023-10-19T00:36:09;16.60;99.90
27506;DHT22;14939;43.596;1.320;2023-10-19T00:38:39;16.60;99.90
27506;DHT22;14939;43.596;1.320;2023-10-19T00:41:09;16.60;99.90
27506;DHT22;14939;43.596;1.320;2023-10-19T00:43:38;16.60;99.90
27506;DHT22;14939;43.596;1.320;2023-10-19T00:46:16;16.60;99.90
27506;DHT22;14939;43.596;1.320;2023-10-19T00:48:49;16.50;99.90
27506;DHT22;14939;43.596;1.320;2023-10-19T00:51:17;16.50;99.90
27506;DHT22;14939;43.596;1.320;2023-10-19T00:54:17;16.40;99.90
27506;DHT22;14939;43.596;1.320;2023-10-19T00:56:53;16.40;99.90
27506;DHT22;14939;43.596;1.320;2023-10-19T00:59:22;16.40;99.90
27506;DHT22;14939;43.596;1.320;2023-10-19T01:01:55;16.40;99.90
27506;DHT22;14939;43.596;1.320;2023-10-19T01:04:29;16.50;99.90
27506;DHT22;14939;43.596;1.320;2023-10-19T01:06:59;16.60;99.90
27506;DHT22;14939;43.596;1.320;2023-10-19T01:09:41;16.70;99.90
27506;DHT22;14939;43.596;1.320;2023-10-19T01:12:09;16.80;99.90
27506;DHT22;14939;43.596;1.320;2023-10-19T01:17:43;17.00;99.90
27506;DHT22;14939;43.596;1.320;2023-10-19T01:20:14;17.00;99.90
27506;DHT22;14939;43.596;1.320;2023-10-19T01:25:50;17.10;99.90
27506;DHT22;14939;43.596;1.320;2023-10-19T01:28:20;17.00;99.90
27506;DHT22;14939;43.596;1.320;2023-10-19T01:31:13;17.00;99.90
27506;DHT22;14939;43.596;1.320;2023-10-19T01:33:54;17.00;99.90
27506;DHT22;14939;43.596;1.320;2023-10-19T01:36:22;17.10;99.90
27506;DHT22;14939;43.596;1.320;2023-10-19T01:38:48;17.10;99.90
27506;DHT22;14939;43.596;1.320;2023-10-19T01:41:15;17.00;99.90
27506;DHT22;14939;43.596;1.320;2023-10-19T01:43:48;17.00;99.90
27506;DHT22;14939;43.596;1.320;2023-10-19T01:46:18;17.00;99.90
27506;DHT22;14939;43.596;1.320;2023-10-19T01:48:52;17.00;99.90
27506;DHT22;14939;43.596;1.320;2023-10-19T01:51:25;17.10;99.90
27506;DHT22;14939;43.596;1.320;2023-10-19T01:53:57;17.20;99.90
27506;DHT22;14939;43.596;1.320;2023-10-19T01:56:23;17.30;99.90
27506;DHT22;14939;43.596;1.320;2023-10-19T01:58:50;17.30;99.90
27506;DHT22;14939;43.596;1.320;2023-10-19T02:01:17;17.30;99.90
27506;DHT22;14939;43.596;1.320;2023-10-19T02:03:53;17.40;99.90
27506;DHT22;14939;43.596;1.320;2023-10-19T02:06:21;17.40;99.90
27506;DHT22;14939;43.596;1.320;2023-10-19T02:09:00;17.40;99.90
27506;DHT22;14939;43.596;1.320;2023-10-19T02:11:27;17.50;99.90
27506;DHT22;14939;43.596;1.320;2023-10-19T02:13:55;17.60;99.90
27506;DHT22;14939;43.596;1.320;2023-10-19T02:16:25;17.60;99.90
27506;DHT22;14939;43.596;1.320;2023-10-19T02:18:51;17.60;99.90
27506;DHT22;14939;43.596;1.320;2023-10-19T02:21:18;17.70;99.90
27506;DHT22;14939;43.596;1.320;2023-10-19T02:23:54;17.70;99.90
27506;DHT22;14939;43.596;1.320;2023-10-19T02:26:20;17.70;99.90
27506;DHT22;14939;43.596;1.320;2023-10-19T02:28:48;17.80;99.90
27506;DHT22;14939;43.596;1.320;2023-10-19T02:31:17;17.80;99.90
27506;DHT22;14939;43.596;1.320;2023-10-19T02:33:51;17.80;99.90
27506;DHT22;14939;43.596;1.320;2023-10-19T02:36:30;17.80;99.90
27506;DHT22;14939;43.596;1.320;2023-10-19T02:38:57;17.80;99.90
27506;DHT22;14939;43.596;1.320;2023-10-19T02:41:25;17.80;99.90
27506;DHT22;14939;43.596;1.320;2023-10-19T02:43:52;17.80;99.90
27506;DHT22;14939;43.596;1.320;2023-10-19T02:46:50;17.80;99.90
27506;DHT22;14939;43.596;1.320;2023-10-19T02:49:17;17.80;99.90
27506;DHT22;14939;43.596;1.320;2023-10-19T02:51:46;17.80;99.90
27506;DHT22;14939;43.596;1.320;2023-10-19T02:54:13;17.80;99.90
27506;DHT22;14939;43.596;1.320;2023-10-19T02:56:54;17.90;99.90
27506;DHT22;14939;43.596;1.320;2023-10-19T02:59:24;17.90;99.90
27506;DHT22;14939;43.596;1.320;2023-10-19T03:01:54;17.90;99.90
27506;DHT22;14939;43.596;1.320;2023-10-19T03:04:26;17.90;99.90
27506;DHT22;14939;43.596;1.320;2023-10-19T03:06:54;18.00;99.90
27506;DHT22;14939;43.596;1.320;2023-10-19T03:09:22;18.00;99.90
27506;DHT22;14939;43.596;1.320;2023-10-19T03:11:49;18.00;99.90
27506;DHT22;14939;43.596;1.320;2023-10-19T03:14:18;18.00;99.90
27506;DHT22;14939;43.596;1.320;2023-10-19T03:16:45;18.00;99.90
27506;DHT22;14939;43.596;1.320;2023-10-19T03:19:11;18.00;99.90
27506;DHT22;14939;43.596;1.320;2023-10-19T03:21:38;18.00;99.90
27506;DHT22;14939;43.596;1.320;2023-10-19T03:24:14;18.00;99.90
27506;DHT22;14939;43.596;1.320;2023-10-19T03:27:11;18.10;99.90
27506;DHT22;14939;43.596;1.320;2023-10-19T03:29:47;18.10;99.90
27506;DHT22;14939;43.596;1.320;2023-10-19T03:32:18;18.10;99.90
27506;DHT22;14939;43.596;1.320;2023-10-19T03:34:47;18.20;99.90
27506;DHT22;14939;43.596;1.320;2023-10-19T03:37:14;18.20;99.90
27506;DHT22;14939;43.596;1.320;2023-10-19T03:39:41;18.20;99.90
27506;DHT22;14939;43.596;1.320;2023-10-19T03:42:07;18.20;99.90
27506;DHT22;14939;43.596;1.320;2023-10-19T03:44:39;18.20;99.90
27506;DHT22;14939;43.596;1.320;2023-10-19T03:47:13;18.20;99.90
27506;DHT22;14939;43.596;1.320;2023-10-19T03:49:46;18.20;99.90
27506;DHT22;14939;43.596;1.320;2023-10-19T03:52:13;18.20;99.90
27506;DHT22;14939;43.596;1.320;2023-10-19T03:54:39;18.20;99.90
27506;DHT22;14939;43.596;1.320;2023-10-19T03:57:06;18.20;99.90
27506;DHT22;14939;43.596;1.320;2023-10-19T03:59:40;18.20;99.90
27506;DHT22;14939;43.596;1.320;2023-10-19T04:02:09;18.20;99.90
27506;DHT22;14939;43.596;1.320;2023-10-19T04:04:36;18.20;99.90
27506;DHT22;14939;43.596;1.320;2023-10-19T04:07:04;18.20;99.90
27506;DHT22;14939;43.596;1.320;2023-10-19T04:09:37;18.20;99.90
27506;DHT22;14939;43.596;1.320;2023-10-19T04:12:25;18.20;99.90
27506;DHT22;14939;43.596;1.320;2023-10-19T04:14:51;18.20;99.90
27506;DHT22;14939;43.596;1.320;2023-10-19T04:17:17;18.20;99.90
27506;DHT22;14939;43.596;1.320;2023-10-19T04:19:47;18.20;99.90
27506;DHT22;14939;43.596;1.320;2023-10-19T04:22:14;18.20;99.90
27506;DHT22;14939;43.596;1.320;2023-10-19T04:24:49;18.20;99.90
27506;DHT22;14939;43.596;1.320;2023-10-19T04:27:14;18.10;99.90
27506;DHT22;14939;43.596;1.320;2023-10-19T04:29:40;18.10;99.90
27506;DHT22;14939;43.596;1.320;2023-10-19T04:32:09;18.00;99.90
27506;DHT22;14939;43.596;1.320;2023-10-19T04:34:35;18.00;99.90
27506;DHT22;14939;43.596;1.320;2023-10-19T04:37:02;18.10;99.90
27506;DHT22;14939;43.596;1.320;2023-10-19T04:39:28;18.10;99.90
27506;DHT22;14939;43.596;1.320;2023-10-19T04:41:55;18.10;99.90
27506;DHT22;14939;43.596;1.320;2023-10-19T04:44:21;18.10;99.90
27506;DHT22;14939;43.596;1.320;2023-10-19T04:46:48;18.10;99.90
27506;DHT22;14939;43.596;1.320;2023-10-19T04:49:14;18.10;99.90
27506;DHT22;14939;43.596;1.320;2023-10-19T04:51:40;18.10;99.90
27506;DHT22;14939;43.596;1.320;2023-10-19T04:54:06;18.10;99.90
27506;DHT22;14939;43.596;1.320;2023-10-19T04:56:34;18.10;99.90
27506;DHT22;14939;43.596;1.320;2023-10-19T04:59:01;18.10;99.90
27506;DHT22;14939;43.596;1.320;2023-10-19T05:01:27;18.10;99.90
27506;DHT22;14939;43.596;1.320;2023-10-19T05:03:53;18.10;99.90
27506;DHT22;14939;43.596;1.320;2023-10-19T05:06:19;18.00;99.90
27506;DHT22;14939;43.596;1.320;2023-10-19T05:08:45;18.00;99.90
27506;DHT22;14939;43.596;1.320;2023-10-19T05:11:12;18.00;99.90
27506;DHT22;14939;43.596;1.320;2023-10-19T05:13:38;18.00;99.90
27506;DHT22;14939;43.596;1.320;2023-10-19T05:16:04;18.00;99.90
27506;DHT22;14939;43.596;1.320;2023-10-19T05:18:30;18.10;99.90
27506;DHT22;14939;43.596;1.320;2023-10-19T05:20:56;18.10;99.90
27506;DHT22;14939;43.596;1.320;2023-10-19T05:23:23;18.00;99.90
27506;DHT22;14939;43.596;1.320;2023-10-19T05:25:50;18.00;99.90
27506;DHT22;14939;43.596;1.320;2023-10-19T05:28:17;18.00;99.90
27506;DHT22;14939;43.596;1.320;2023-10-19T05:30:44;17.90;99.90
27506;DHT22;14939;43.596;1.320;2023-10-19T05:33:10;17.90;99.90
27506;DHT22;14939;43.596;1.320;2023-10-19T05:35:36;17.90;99.90
27506;DHT22;14939;43.596;1.320;2023-10-19T05:38:07;17.80;99.90
27506;DHT22;14939;43.596;1.320;2023-10-19T05:40:32;17.70;99.90
27506;DHT22;14939;43.596;1.320;2023-10-19T05:42:59;17.70;99.90
27506;DHT22;14939;43.596;1.320;2023-10-19T05:45:29;17.60;99.90
27506;DHT22;14939;43.596;1.320;2023-10-19T05:47:56;17.60;99.90
27506;DHT22;14939;43.596;1.320;2023-10-19T05:50:22;17.50;99.90
27506;DHT22;14939;43.596;1.320;2023-10-19T05:52:48;17.50;99.90
27506;DHT22;14939;43.596;1.320;2023-10-19T05:55:14;17.50;99.90
27506;DHT22;14939;43.596;1.320;2023-10-19T05:57:40;17.40;99.90
27506;DHT22;14939;43.596;1.320;2023-10-19T06:00:10;17.40;99.90
27506;DHT22;14939;43.596;1.320;2023-10-19T06:02:46;17.40;99.90
27506;DHT22;14939;43.596;1.320;2023-10-19T06:05:16;17.30;99.90
27506;DHT22;14939;43.596;1.320;2023-10-19T06:07:47;17.30;99.90
27506;DHT22;14939;43.596;1.320;2023-10-19T06:10:15;17.20;99.90
27506;DHT22;14939;43.596;1.320;2023-10-19T06:12:46;17.20;99.90
27506;DHT22;14939;43.596;1.320;2023-10-19T06:15:12;17.20;99.90
27506;DHT22;14939;43.596;1.320;2023-10-19T06:17:41;17.20;99.90
27506;DHT22;14939;43.596;1.320;2023-10-19T06:20:08;17.10;99.90
27506;DHT22;14939;43.596;1.320;2023-10-19T06:22:48;17.10;99.90
27506;DHT22;14939;43.596;1.320;2023-10-19T06:25:20;17.10;99.90
27506;DHT22;14939;43.596;1.320;2023-10-19T06:27:47;17.00;99.90
27506;DHT22;14939;43.596;1.320;2023-10-19T06:30:14;17.00;99.90
27506;DHT22;14939;43.596;1.320;2023-10-19T06:32:52;17.00;99.90
27506;DHT22;14939;43.596;1.320;2023-10-19T06:35:19;17.10;99.90
27506;DHT22;14939;43.596;1.320;2023-10-19T06:37:45;17.10;99.90
27506;DHT22;14939;43.596;1.320;2023-10-19T06:40:13;17.20;99.90
27506;DHT22;14939;43.596;1.320;2023-10-19T06:42:43;17.30;99.90
27506;DHT22;14939;43.596;1.320;2023-10-19T06:45:09;17.40;99.90
27506;DHT22;14939;43.596;1.320;2023-10-19T06:47:39;17.50;99.90
27506;DHT22;14939;43.596;1.320;2023-10-19T06:50:07;17.60;99.90
27506;DHT22;14939;43.596;1.320;2023-10-19T06:52:39;17.70;99.90
27506;DHT22;14939;43.596;1.320;2023-10-19T06:55:06;17.70;99.90
27506;DHT22;14939;43.596;1.320;2023-10-19T06:58:04;17.80;99.90
27506;DHT22;14939;43.596;1.320;2023-10-19T07:00:30;17.80;99.90
27506;DHT22;14939;43.596;1.320;2023-10-19T07:02:57;17.90;99.90
27506;DHT22;14939;43.596;1.320;2023-10-19T07:05:26;17.90;99.90
27506;DHT22;14939;43.596;1.320;2023-10-19T07:07:55;18.00;99.90
27506;DHT22;14939;43.596;1.320;2023-10-19T07:10:23;18.00;99.90
27506;DHT22;14939;43.596;1.320;2023-10-19T07:12:52;18.10;99.90
27506;DHT22;14939;43.596;1.320;2023-10-19T07:15:19;18.10;99.90
27506;DHT22;14939;43.596;1.320;2023-10-19T07:17:46;18.10;99.90
27506;DHT22;14939;43.596;1.320;2023-10-19T07:20:15;18.20;99.90
27506;DHT22;14939;43.596;1.320;2023-10-19T07:23:03;18.20;99.90
27506;DHT22;14939;43.596;1.320;2023-10-19T07:25:49;18.20;99.90
27506;DHT22;14939;43.596;1.320;2023-10-19T07:28:20;18.20;99.90
27506;DHT22;14939;43.596;1.320;2023-10-19T07:30:46;18.30;99.90
27506;DHT22;14939;43.596;1.320;2023-10-19T07:33:13;18.30;99.90
27506;DHT22;14939;43.596;1.320;2023-10-19T07:35:50;18.40;99.90
27506;DHT22;14939;43.596;1.320;2023-10-19T07:38:26;18.40;99.90
27506;DHT22;14939;43.596;1.320;2023-10-19T07:40:53;18.40;99.90
27506;DHT22;14939;43.596;1.320;2023-10-19T07:43:19;18.50;99.90
27506;DHT22;14939;43.596;1.320;2023-10-19T07:45:46;18.60;99.90
27506;DHT22;14939;43.596;1.320;2023-10-19T07:48:13;18.60;99.90
27506;DHT22;14939;43.596;1.320;2023-10-19T07:50:39;18.50;99.90
27506;DHT22;14939;43.596;1.320;2023-10-19T07:53:09;18.40;99.90
27506;DHT22;14939;43.596;1.320;2023-10-19T07:55:35;18.40;99.90
27506;DHT22;14939;43.596;1.320;2023-10-19T07:58:00;18.50;99.90
27506;DHT22;14939;43.596;1.320;2023-10-19T08:00:27;18.60;99.90
27506;DHT22;14939;43.596;1.320;2023-10-19T08:02:56;18.90;99.90
27506;DHT22;14939;43.596;1.320;2023-10-19T08:05:22;19.10;99.90
27506;DHT22;14939;43.596;1.320;2023-10-19T08:07:48;19.30;99.90
27506;DHT22;14939;43.596;1.320;2023-10-19T08:10:15;19.50;99.90
27506;DHT22;14939;43.596;1.320;2023-10-19T08:12:42;19.70;99.90
27506;DHT22;14939;43.596;1.320;2023-10-19T08:15:11;19.80;99.90
27506;DHT22;14939;43.596;1.320;2023-10-19T08:17:42;19.80;99.90
27506;DHT22;14939;43.596;1.320;2023-10-19T08:20:10;19.80;99.90
27506;DHT22;14939;43.596;1.320;2023-10-19T08:22:42;19.80;99.90
27506;DHT22;14939;43.596;1.320;2023-10-19T08:25:08;19.70;99.90
27506;DHT22;14939;43.596;1.320;2023-10-19T08:27:41;19.60;99.90
27506;DHT22;14939;43.596;1.320;2023-10-19T08:30:10;19.60;99.90
27506;DHT22;14939;43.596;1.320;2023-10-19T08:32:36;19.60;99.90
27506;DHT22;14939;43.596;1.320;2023-10-19T08:35:02;19.60;99.90
27506;DHT22;14939;43.596;1.320;2023-10-19T08:37:29;19.60;99.90
27506;DHT22;14939;43.596;1.320;2023-10-19T08:39:55;19.50;99.90
27506;DHT22;14939;43.596;1.320;2023-10-19T08:42:21;19.50;99.90
27506;DHT22;14939;43.596;1.320;2023-10-19T08:44:46;19.40;99.90
27506;DHT22;14939;43.596;1.320;2023-10-19T08:47:12;19.40;99.90
27506;DHT22;14939;43.596;1.320;2023-10-19T08:49:38;19.40;99.90
27506;DHT22;14939;43.596;1.320;2023-10-19T08:52:05;19.40;99.90
27506;DHT22;14939;43.596;1.320;2023-10-19T08:54:32;19.40;99.90
27506;DHT22;14939;43.596;1.320;2023-10-19T08:56:59;19.40;99.90
27506;DHT22;14939;43.596;1.320;2023-10-19T08:59:25;19.40;99.90
27506;DHT22;14939;43.596;1.320;2023-10-19T09:02:00;19.40;99.90
27506;DHT22;14939;43.596;1.320;2023-10-19T09:04:28;19.40;99.90
27506;DHT22;14939;43.596;1.320;2023-10-19T09:06:54;19.40;99.90
27506;DHT22;14939;43.596;1.320;2023-10-19T09:09:20;19.50;99.90
27506;DHT22;14939;43.596;1.320;2023-10-19T09:11:47;19.50;99.90
27506;DHT22;14939;43.596;1.320;2023-10-19T09:14:17;19.60;99.90
27506;DHT22;14939;43.596;1.320;2023-10-19T09:16:56;19.70;99.90
27506;DHT22;14939;43.596;1.320;2023-10-19T09:19:42;19.70;99.90
27506;DHT22;14939;43.596;1.320;2023-10-19T09:22:08;19.70;99.90
27506;DHT22;14939;43.596;1.320;2023-10-19T09:24:50;19.70;99.90
27506;DHT22;14939;43.596;1.320;2023-10-19T09:27:22;19.60;99.90
27506;DHT22;14939;43.596;1.320;2023-10-19T09:29:48;19.50;99.90
27506;DHT22;14939;43.596;1.320;2023-10-19T09:32:14;19.50;99.90
27506;DHT22;14939;43.596;1.320;2023-10-19T09:34:40;19.40;99.90
27506;DHT22;14939;43.596;1.320;2023-10-19T09:37:10;19.50;99.90
27506;DHT22;14939;43.596;1.320;2023-10-19T09:39:36;19.40;99.90
27506;DHT22;14939;43.596;1.320;2023-10-19T09:42:06;19.40;99.90
27506;DHT22;14939;43.596;1.320;2023-10-19T09:47:09;19.30;99.90
27506;DHT22;14939;43.596;1.320;2023-10-19T09:49:36;19.30;99.90
27506;DHT22;14939;43.596;1.320;2023-10-19T09:52:03;19.50;99.90
27506;DHT22;14939;43.596;1.320;2023-10-19T09:54:48;19.70;99.90
27506;DHT22;14939;43.596;1.320;2023-10-19T09:57:30;19.80;99.90
27506;DHT22;14939;43.596;1.320;2023-10-19T10:00:02;20.00;99.90
27506;DHT22;14939;43.596;1.320;2023-10-19T10:02:39;20.00;99.90
27506;DHT22;14939;43.596;1.320;2023-10-19T10:10:50;20.50;98.90
27506;DHT22;14939;43.596;1.320;2023-10-19T10:15:57;20.80;97.70
27506;DHT22;14939;43.596;1.320;2023-10-19T10:18:26;21.00;97.30
27506;DHT22;14939;43.596;1.320;2023-10-19T10:23:43;21.10;96.60
27506;DHT22;14939;43.596;1.320;2023-10-19T10:26:10;21.20;96.10
27506;DHT22;14939;43.596;1.320;2023-10-19T10:28:36;21.20;95.60
27506;DHT22;14939;43.596;1.320;2023-10-19T10:31:13;21.40;94.90
27506;DHT22;14939;43.596;1.320;2023-10-19T10:33:50;21.60;94.90
27506;DHT22;14939;43.596;1.320;2023-10-19T10:36:18;21.80;94.10
27506;DHT22;14939;43.596;1.320;2023-10-19T10:38:50;21.90;93.90
27506;DHT22;14939;43.596;1.320;2023-10-19T10:41:23;22.10;93.20
27506;DHT22;14939;43.596;1.320;2023-10-19T10:43:57;22.20;92.20
27506;DHT22;14939;43.596;1.320;2023-10-19T10:46:25;22.20;91.80
27506;DHT22;14939;43.596;1.320;2023-10-19T10:48:51;22.30;91.50
27506;DHT22;14939;43.596;1.320;2023-10-19T10:51:24;22.40;91.20
27506;DHT22;14939;43.596;1.320;2023-10-19T10:53:51;22.70;90.80
27506;DHT22;14939;43.596;1.320;2023-10-19T10:56:19;22.90;89.50
27506;DHT22;14939;43.596;1.320;2023-10-19T10:58:45;22.80;88.90
27506;DHT22;14939;43.596;1.320;2023-10-19T11:01:11;22.80;88.00
27506;DHT22;14939;43.596;1.320;2023-10-19T11:03:39;22.60;87.80
27506;DHT22;14939;43.596;1.320;2023-10-19T11:06:08;22.60;88.40
27506;DHT22;14939;43.596;1.320;2023-10-19T11:08:35;22.70;87.70
27506;DHT22;14939;43.596;1.320;2023-10-19T11:11:09;23.00;87.70
27506;DHT22;14939;43.596;1.320;2023-10-19T11:13:39;23.40;86.20
27506;DHT22;14939;43.596;1.320;2023-10-19T11:16:08;23.30;83.90
27506;DHT22;14939;43.596;1.320;2023-10-19T11:18:41;23.10;85.00
27506;DHT22;14939;43.596;1.320;2023-10-19T11:21:12;23.10;85.20
27506;DHT22;14939;43.596;1.320;2023-10-19T11:23:45;23.10;85.40
27506;DHT22;14939;43.596;1.320;2023-10-19T11:26:12;23.00;85.80
27506;DHT22;14939;43.596;1.320;2023-10-19T11:28:40;22.90;83.90
27506;DHT22;14939;43.596;1.320;2023-10-19T11:31:22;23.00;84.50
27506;DHT22;14939;43.596;1.320;2023-10-19T11:33:50;23.30;83.30
27506;DHT22;14939;43.596;1.320;2023-10-19T11:36:17;23.50;81.70
27506;DHT22;14939;43.596;1.320;2023-10-19T11:38:45;23.70;79.60
27506;DHT22;14939;43.596;1.320;2023-10-19T11:41:12;23.60;79.60
27506;DHT22;14939;43.596;1.320;2023-10-19T11:43:44;23.60;79.30
27506;DHT22;14939;43.596;1.320;2023-10-19T11:46:10;23.90;79.00
27506;DHT22;14939;43.596;1.320;2023-10-19T11:48:40;23.90;76.50
27506;DHT22;14939;43.596;1.320;2023-10-19T11:51:08;23.90;77.10
27506;DHT22;14939;43.596;1.320;2023-10-19T11:53:37;24.00;76.50
27506;DHT22;14939;43.596;1.320;2023-10-19T11:56:05;24.00;73.80
27506;DHT22;14939;43.596;1.320;2023-10-19T11:58:34;24.10;72.40
27506;DHT22;14939;43.596;1.320;2023-10-19T12:01:01;24.20;71.20
27506;DHT22;14939;43.596;1.320;2023-10-19T12:03:31;24.30;71.10
27506;DHT22;14939;43.596;1.320;2023-10-19T12:05:56;24.30;70.80
27506;DHT22;14939;43.596;1.320;2023-10-19T12:08:22;24.40;71.70
27506;DHT22;14939;43.596;1.320;2023-10-19T12:10:50;24.40;71.10
27506;DHT22;14939;43.596;1.320;2023-10-19T12:13:17;24.40;70.30
27506;DHT22;14939;43.596;1.320;2023-10-19T12:15:43;24.30;68.90
27506;DHT22;14939;43.596;1.320;2023-10-19T12:18:20;24.20;69.50
27506;DHT22;14939;43.596;1.320;2023-10-19T12:20:46;24.10;69.10
27506;DHT22;14939;43.596;1.320;2023-10-19T12:23:13;24.20;69.30
27506;DHT22;14939;43.596;1.320;2023-10-19T12:25:38;24.20;69.80
27506;DHT22;14939;43.596;1.320;2023-10-19T12:28:04;24.30;69.40
27506;DHT22;14939;43.596;1.320;2023-10-19T12:30:30;24.20;70.00
27506;DHT22;14939;43.596;1.320;2023-10-19T12:33:03;24.20;68.30
27506;DHT22;14939;43.596;1.320;2023-10-19T12:35:33;24.30;69.30
27506;DHT22;14939;43.596;1.320;2023-10-19T12:38:15;24.50;69.30
27506;DHT22;14939;43.596;1.320;2023-10-19T12:40:46;24.50;67.50
27506;DHT22;14939;43.596;1.320;2023-10-19T12:43:13;24.50;67.20
27506;DHT22;14939;43.596;1.320;2023-10-19T12:45:39;24.50;68.20
27506;DHT22;14939;43.596;1.320;2023-10-19T12:48:06;24.60;68.50
27506;DHT22;14939;43.596;1.320;2023-10-19T12:50:34;24.60;68.00
27506;DHT22;14939;43.596;1.320;2023-10-19T12:52:59;24.60;67.90
27506;DHT22;14939;43.596;1.320;2023-10-19T12:55:25;24.60;67.60
27506;DHT22;14939;43.596;1.320;2023-10-19T12:57:53;24.50;67.60
27506;DHT22;14939;43.596;1.320;2023-10-19T13:00:19;24.40;67.50
27506;DHT22;14939;43.596;1.320;2023-10-19T13:03:03;24.40;68.00
27506;DHT22;14939;43.596;1.320;2023-10-19T13:05:34;24.30;67.90
27506;DHT22;14939;43.596;1.320;2023-10-19T13:08:01;24.20;68.80
27506;DHT22;14939;43.596;1.320;2023-10-19T13:10:31;23.90;69.50
27506;DHT22;14939;43.596;1.320;2023-10-19T13:12:59;23.80;70.90
27506;DHT22;14939;43.596;1.320;2023-10-19T13:15:35;23.60;70.80
27506;DHT22;14939;43.596;1.320;2023-10-19T13:18:02;23.60;71.30
27506;DHT22;14939;43.596;1.320;2023-10-19T13:20:29;23.50;71.80
27506;DHT22;14939;43.596;1.320;2023-10-19T13:23:04;23.40;71.90
27506;DHT22;14939;43.596;1.320;2023-10-19T13:25:30;23.40;72.40
27506;DHT22;14939;43.596;1.320;2023-10-19T13:28:15;23.40;71.10
27506;DHT22;14939;43.596;1.320;2023-10-19T13:30:52;23.40;70.80
27506;DHT22;14939;43.596;1.320;2023-10-19T13:33:22;23.20;70.70
27506;DHT22;14939;43.596;1.320;2023-10-19T13:35:49;23.10;71.10
27506;DHT22;14939;43.596;1.320;2023-10-19T13:38:17;23.10;71.90
27506;DHT22;14939;43.596;1.320;2023-10-19T13:40:43;22.90;71.40
27506;DHT22;14939;43.596;1.320;2023-10-19T13:43:11;22.80;71.90
27506;DHT22;14939;43.596;1.320;2023-10-19T13:45:40;22.60;73.10
27506;DHT22;14939;43.596;1.320;2023-10-19T13:48:07;22.40;73.90
27506;DHT22;14939;43.596;1.320;2023-10-19T13:50:35;22.30;75.20
27506;DHT22;14939;43.596;1.320;2023-10-19T13:53:02;22.10;76.60
27506;DHT22;14939;43.596;1.320;2023-10-19T13:55:31;22.00;78.40
27506;DHT22;14939;43.596;1.320;2023-10-19T13:57:57;22.00;79.60
27506;DHT22;14939;43.596;1.320;2023-10-19T14:00:23;22.00;79.90
27506;DHT22;14939;43.596;1.320;2023-10-19T14:02:51;22.00;81.10
27506;DHT22;14939;43.596;1.320;2023-10-19T14:05:17;22.00;82.90
27506;DHT22;14939;43.596;1.320;2023-10-19T14:07:44;22.00;85.50
27506;DHT22;14939;43.596;1.320;2023-10-19T14:10:10;22.00;86.20
27506;DHT22;14939;43.596;1.320;2023-10-19T14:12:42;22.00;86.00
27506;DHT22;14939;43.596;1.320;2023-10-19T14:15:18;22.00;87.50
27506;DHT22;14939;43.596;1.320;2023-10-19T14:17:46;22.00;89.00
27506;DHT22;14939;43.596;1.320;2023-10-19T14:20:13;22.00;90.00
27506;DHT22;14939;43.596;1.320;2023-10-19T14:22:43;21.90;90.20
27506;DHT22;14939;43.596;1.320;2023-10-19T14:25:11;21.90;90.70
27506;DHT22;14939;43.596;1.320;2023-10-19T14:27:48;21.90;90.30
27506;DHT22;14939;43.596;1.320;2023-10-19T14:30:15;21.90;90.00
27506;DHT22;14939;43.596;1.320;2023-10-19T14:32:42;21.90;90.30
27506;DHT22;14939;43.596;1.320;2023-10-19T14:35:11;21.90;88.40
27506;DHT22;14939;43.596;1.320;2023-10-19T14:37:39;21.90;89.00
27506;DHT22;14939;43.596;1.320;2023-10-19T14:40:10;21.90;90.00
27506;DHT22;14939;43.596;1.320;2023-10-19T14:42:46;21.80;89.80
27506;DHT22;14939;43.596;1.320;2023-10-19T14:45:14;21.70;89.40
27506;DHT22;14939;43.596;1.320;2023-10-19T14:47:48;21.60;89.30
27506;DHT22;14939;43.596;1.320;2023-10-19T14:50:15;21.60;90.10
27506;DHT22;14939;43.596;1.320;2023-10-19T14:52:44;21.60;90.00
27506;DHT22;14939;43.596;1.320;2023-10-19T14:55:10;21.60;89.90
27506;DHT22;14939;43.596;1.320;2023-10-19T14:57:39;21.50;89.70
27506;DHT22;14939;43.596;1.320;2023-10-19T15:00:09;21.40;90.00
27506;DHT22;14939;43.596;1.320;2023-10-19T15:02:44;21.30;90.20
27506;DHT22;14939;43.596;1.320;2023-10-19T15:05:11;21.10;90.00
27506;DHT22;14939;43.596;1.320;2023-10-19T15:07:40;21.00;90.40
27506;DHT22;14939;43.596;1.320;2023-10-19T15:10:06;21.00;90.20
27506;DHT22;14939;43.596;1.320;2023-10-19T15:12:36;20.90;90.80
27506;DHT22;14939;43.596;1.320;2023-10-19T15:15:01;20.90;91.90
27506;DHT22;14939;43.596;1.320;2023-10-19T15:17:27;20.90;92.60
27506;DHT22;14939;43.596;1.320;2023-10-19T15:19:53;20.80;93.30
27506;DHT22;14939;43.596;1.320;2023-10-19T15:22:19;20.80;94.20
27506;DHT22;14939;43.596;1.320;2023-10-19T15:24:44;20.80;94.60
27506;DHT22;14939;43.596;1.320;2023-10-19T15:27:10;20.70;94.50
27506;DHT22;14939;43.596;1.320;2023-10-19T15:29:36;20.70;94.80
27506;DHT22;14939;43.596;1.320;2023-10-19T15:32:01;20.70;94.70
27506;DHT22;14939;43.596;1.320;2023-10-19T15:34:27;20.70;94.00
27506;DHT22;14939;43.596;1.320;2023-10-19T15:36:55;20.70;94.80
27506;DHT22;14939;43.596;1.320;2023-10-19T15:39:21;20.70;94.40
27506;DHT22;14939;43.596;1.320;2023-10-19T15:41:48;20.60;93.90
27506;DHT22;14939;43.596;1.320;2023-10-19T15:44:14;20.60;94.70
27506;DHT22;14939;43.596;1.320;2023-10-19T15:46:40;20.60;94.30
27506;DHT22;14939;43.596;1.320;2023-10-19T15:49:08;20.60;94.70
27506;DHT22;14939;43.596;1.320;2023-10-19T15:51:34;20.50;94.60
27506;DHT22;14939;43.596;1.320;2023-10-19T15:54:01;20.50;94.00
27506;DHT22;14939;43.596;1.320;2023-10-19T15:56:30;20.50;94.50
27506;DHT22;14939;43.596;1.320;2023-10-19T15:58:56;20.50;93.50
27506;DHT22;14939;43.596;1.320;2023-10-19T16:01:22;20.50;94.20
27506;DHT22;14939;43.596;1.320;2023-10-19T16:03:48;20.50;93.80